sensor_id;sensor_type;location;lat;lon;timestamp;P1;durP1;ratioP1;P2;durP2;ratioP2
28802;SDS011;15949;55.656;37.422;2023-08-12T00:00:13;19.30;;;16.67;;
28802;SDS011;15949;55.656;37.422;2023-08-12T00:05:19;18.50;;;16.35;;
28802;SDS011;15949;55.656;37.422;2023-08-12T00:10:24;22.20;;;15.13;;
28802;SDS011;15949;55.656;37.422;2023-08-12T00:15:30;24.38;;;16.02;;
28802;SDS011;15949;55.656;37.422;2023-08-12T00:20:36;18.20;;;15.30;;
28802;SDS011;15949;55.656;37.422;2023-08-12T00:25:43;17.58;;;15.68;;
28802;SDS011;15949;55.656;37.422;2023-08-12T00:30:48;19.15;;;14.55;;
28802;SDS011;15949;55.656;37.422;2023-08-12T00:35:54;15.57;;;12.77;;
28802;SDS011;15949;55.656;37.422;2023-08-12T00:41:00;19.70;;;14.60;;
28802;SDS011;15949;55.656;37.422;2023-08-12T00:46:05;19.15;;;13.65;;
28802;SDS011;15949;55.656;37.422;2023-08-12T00:51:11;21.23;;;14.65;;
28802;SDS011;15949;55.656;37.422;2023-08-12T00:56:17;20.10;;;15.25;;
28802;SDS011;15949;55.656;37.422;2023-08-12T01:01:23;17.88;;;15.45;;
28802;SDS011;15949;55.656;37.422;2023-08-12T01:06:29;15.88;;;13.20;;
28802;SDS011;15949;55.656;37.422;2023-08-12T01:16:59;18.33;;;12.80;;
28802;SDS011;15949;55.656;37.422;2023-08-12T01:22:10;19.05;;;15.00;;
28802;SDS011;15949;55.656;37.422;2023-08-12T01:27:16;20.80;;;14.30;;
28802;SDS011;15949;55.656;37.422;2023-08-12T01:37:48;19.90;;;15.35;;
28802;SDS011;15949;55.656;37.422;2023-08-12T01:42:55;17.60;;;13.65;;
28802;SDS011;15949;55.656;37.422;2023-08-12T01:48:01;16.08;;;13.60;;
28802;SDS011;15949;55.656;37.422;2023-08-12T01:53:08;21.52;;;14.70;;
28802;SDS011;15949;55.656;37.422;2023-08-12T01:58:13;18.17;;;15.25;;
28802;SDS011;15949;55.656;37.422;2023-08-12T02:03:19;21.70;;;15.80;;
28802;SDS011;15949;55.656;37.422;2023-08-12T02:08:25;23.75;;;15.38;;
28802;SDS011;15949;55.656;37.422;2023-08-12T02:13:30;18.55;;;16.02;;
28802;SDS011;15949;55.656;37.422;2023-08-12T02:18:36;20.05;;;15.02;;
28802;SDS011;15949;55.656;37.422;2023-08-12T02:23:41;23.55;;;15.88;;
28802;SDS011;15949;55.656;37.422;2023-08-12T02:28:49;21.08;;;15.40;;
28802;SDS011;15949;55.656;37.422;2023-08-12T02:33:54;18.20;;;15.35;;
28802;SDS011;15949;55.656;37.422;2023-08-12T02:39:00;18.95;;;16.42;;
28802;SDS011;15949;55.656;37.422;2023-08-12T02:44:06;19.83;;;16.17;;
28802;SDS011;15949;55.656;37.422;2023-08-12T02:49:11;22.55;;;16.75;;
28802;SDS011;15949;55.656;37.422;2023-08-12T02:54:17;19.80;;;16.08;;
28802;SDS011;15949;55.656;37.422;2023-08-12T02:59:22;25.27;;;17.52;;
28802;SDS011;15949;55.656;37.422;2023-08-12T03:04:30;22.20;;;15.98;;
28802;SDS011;15949;55.656;37.422;2023-08-12T03:09:35;17.75;;;15.32;;
28802;SDS011;15949;55.656;37.422;2023-08-12T03:14:41;23.88;;;16.45;;
28802;SDS011;15949;55.656;37.422;2023-08-12T03:19:46;21.17;;;15.43;;
28802;SDS011;15949;55.656;37.422;2023-08-12T03:24:52;19.15;;;14.27;;
28802;SDS011;15949;55.656;37.422;2023-08-12T03:29:58;21.08;;;15.75;;
28802;SDS011;15949;55.656;37.422;2023-08-12T03:35:03;19.50;;;15.70;;
28802;SDS011;15949;55.656;37.422;2023-08-12T03:40:10;20.13;;;15.13;;
28802;SDS011;15949;55.656;37.422;2023-08-12T03:45:16;18.45;;;14.32;;
28802;SDS011;15949;55.656;37.422;2023-08-12T03:50:21;16.40;;;14.68;;
28802;SDS011;15949;55.656;37.422;2023-08-12T03:55:27;19.90;;;14.25;;
28802;SDS011;15949;55.656;37.422;2023-08-12T04:00:40;20.83;;;14.77;;
28802;SDS011;15949;55.656;37.422;2023-08-12T04:05:47;17.27;;;15.00;;
28802;SDS011;15949;55.656;37.422;2023-08-12T04:10:54;18.13;;;15.23;;
28802;SDS011;15949;55.656;37.422;2023-08-12T04:16:00;21.95;;;16.63;;
28802;SDS011;15949;55.656;37.422;2023-08-12T04:21:05;18.65;;;16.40;;
28802;SDS011;15949;55.656;37.422;2023-08-12T04:26:11;19.02;;;14.13;;
28802;SDS011;15949;55.656;37.422;2023-08-12T04:31:17;16.27;;;13.98;;
28802;SDS011;15949;55.656;37.422;2023-08-12T04:36:22;18.05;;;12.52;;
28802;SDS011;15949;55.656;37.422;2023-08-12T04:41:28;16.77;;;13.38;;
28802;SDS011;15949;55.656;37.422;2023-08-12T04:46:34;17.67;;;13.20;;
28802;SDS011;15949;55.656;37.422;2023-08-12T04:51:39;19.27;;;13.35;;
28802;SDS011;15949;55.656;37.422;2023-08-12T04:56:45;17.20;;;12.95;;
28802;SDS011;15949;55.656;37.422;2023-08-12T05:01:51;18.35;;;13.02;;
28802;SDS011;15949;55.656;37.422;2023-08-12T05:06:56;18.48;;;12.95;;
28802;SDS011;15949;55.656;37.422;2023-08-12T05:12:02;18.65;;;11.55;;
28802;SDS011;15949;55.656;37.422;2023-08-12T05:17:08;18.95;;;11.10;;
28802;SDS011;15949;55.656;37.422;2023-08-12T05:22:13;18.92;;;12.55;;
28802;SDS011;15949;55.656;37.422;2023-08-12T05:27:19;16.23;;;11.32;;
28802;SDS011;15949;55.656;37.422;2023-08-12T05:32:24;17.65;;;11.80;;
28802;SDS011;15949;55.656;37.422;2023-08-12T05:37:30;14.30;;;12.13;;
28802;SDS011;15949;55.656;37.422;2023-08-12T05:42:35;14.02;;;11.32;;
28802;SDS011;15949;55.656;37.422;2023-08-12T05:47:41;16.25;;;10.32;;
28802;SDS011;15949;55.656;37.422;2023-08-12T05:52:47;16.45;;;10.55;;
28802;SDS011;15949;55.656;37.422;2023-08-12T05:57:52;15.10;;;10.57;;
28802;SDS011;15949;55.656;37.422;2023-08-12T06:02:58;16.52;;;11.05;;
28802;SDS011;15949;55.656;37.422;2023-08-12T06:08:03;18.67;;;11.30;;
28802;SDS011;15949;55.656;37.422;2023-08-12T06:13:09;16.40;;;11.73;;
28802;SDS011;15949;55.656;37.422;2023-08-12T06:18:15;18.08;;;11.63;;
28802;SDS011;15949;55.656;37.422;2023-08-12T06:23:20;17.35;;;11.43;;
28802;SDS011;15949;55.656;37.422;2023-08-12T06:28:26;16.40;;;9.85;;
28802;SDS011;15949;55.656;37.422;2023-08-12T06:33:31;17.35;;;10.52;;
28802;SDS011;15949;55.656;37.422;2023-08-12T06:38:37;16.05;;;10.68;;
28802;SDS011;15949;55.656;37.422;2023-08-12T06:43:42;15.98;;;9.70;;
28802;SDS011;15949;55.656;37.422;2023-08-12T06:48:48;12.95;;;10.38;;
28802;SDS011;15949;55.656;37.422;2023-08-12T06:53:54;17.98;;;10.50;;
28802;SDS011;15949;55.656;37.422;2023-08-12T06:58:59;17.90;;;9.63;;
28802;SDS011;15949;55.656;37.422;2023-08-12T07:04:05;15.70;;;10.05;;
28802;SDS011;15949;55.656;37.422;2023-08-12T07:09:10;14.45;;;9.02;;
28802;SDS011;15949;55.656;37.422;2023-08-12T07:14:16;13.65;;;8.80;;
28802;SDS011;15949;55.656;37.422;2023-08-12T07:19:22;18.30;;;8.77;;
28802;SDS011;15949;55.656;37.422;2023-08-12T07:24:28;14.50;;;8.32;;
28802;SDS011;15949;55.656;37.422;2023-08-12T07:29:33;16.17;;;8.77;;
28802;SDS011;15949;55.656;37.422;2023-08-12T07:34:39;13.95;;;8.35;;
28802;SDS011;15949;55.656;37.422;2023-08-12T07:39:44;13.68;;;8.57;;
28802;SDS011;15949;55.656;37.422;2023-08-12T07:44:50;15.43;;;8.30;;
28802;SDS011;15949;55.656;37.422;2023-08-12T07:49:56;16.45;;;8.40;;
28802;SDS011;15949;55.656;37.422;2023-08-12T07:55:02;14.70;;;8.18;;
28802;SDS011;15949;55.656;37.422;2023-08-12T08:00:08;13.82;;;8.43;;
28802;SDS011;15949;55.656;37.422;2023-08-12T08:05:15;16.15;;;9.80;;
28802;SDS011;15949;55.656;37.422;2023-08-12T08:10:20;17.23;;;10.45;;
28802;SDS011;15949;55.656;37.422;2023-08-12T08:15:26;21.95;;;13.05;;
28802;SDS011;15949;55.656;37.422;2023-08-12T08:20:31;17.02;;;13.15;;
28802;SDS011;15949;55.656;37.422;2023-08-12T08:25:37;15.65;;;12.63;;
28802;SDS011;15949;55.656;37.422;2023-08-12T08:30:43;19.40;;;15.23;;
28802;SDS011;15949;55.656;37.422;2023-08-12T08:35:48;16.52;;;11.68;;
28802;SDS011;15949;55.656;37.422;2023-08-12T08:40:54;23.42;;;12.70;;
28802;SDS011;15949;55.656;37.422;2023-08-12T08:46:00;18.83;;;12.90;;
28802;SDS011;15949;55.656;37.422;2023-08-12T08:51:06;23.80;;;12.82;;
28802;SDS011;15949;55.656;37.422;2023-08-12T08:56:14;18.80;;;11.38;;
28802;SDS011;15949;55.656;37.422;2023-08-12T09:01:20;15.10;;;11.00;;
28802;SDS011;15949;55.656;37.422;2023-08-12T09:06:28;16.83;;;12.02;;
28802;SDS011;15949;55.656;37.422;2023-08-12T09:11:34;17.40;;;11.02;;
28802;SDS011;15949;55.656;37.422;2023-08-12T09:16:40;18.75;;;12.48;;
28802;SDS011;15949;55.656;37.422;2023-08-12T09:21:51;21.55;;;12.23;;
28802;SDS011;15949;55.656;37.422;2023-08-12T09:26:58;16.00;;;10.65;;
28802;SDS011;15949;55.656;37.422;2023-08-12T09:32:13;15.27;;;10.60;;
28802;SDS011;15949;55.656;37.422;2023-08-12T09:37:24;15.80;;;10.98;;
28802;SDS011;15949;55.656;37.422;2023-08-12T09:42:30;18.52;;;10.80;;
28802;SDS011;15949;55.656;37.422;2023-08-12T09:47:35;15.27;;;11.30;;
28802;SDS011;15949;55.656;37.422;2023-08-12T09:52:41;17.17;;;11.15;;
28802;SDS011;15949;55.656;37.422;2023-08-12T09:57:56;14.98;;;12.38;;
28802;SDS011;15949;55.656;37.422;2023-08-12T10:03:03;24.77;;;14.30;;
28802;SDS011;15949;55.656;37.422;2023-08-12T10:08:10;22.30;;;13.98;;
28802;SDS011;15949;55.656;37.422;2023-08-12T10:13:19;17.95;;;13.23;;
28802;SDS011;15949;55.656;37.422;2023-08-12T10:18:26;27.08;;;14.55;;
28802;SDS011;15949;55.656;37.422;2023-08-12T10:23:33;18.25;;;15.13;;
28802;SDS011;15949;55.656;37.422;2023-08-12T10:28:39;20.20;;;15.38;;
28802;SDS011;15949;55.656;37.422;2023-08-12T10:33:45;19.50;;;14.55;;
28802;SDS011;15949;55.656;37.422;2023-08-12T10:38:55;23.90;;;15.80;;
28802;SDS011;15949;55.656;37.422;2023-08-12T10:44:02;16.40;;;13.02;;
28802;SDS011;15949;55.656;37.422;2023-08-12T10:49:10;18.95;;;13.93;;
28802;SDS011;15949;55.656;37.422;2023-08-12T10:54:17;14.10;;;12.60;;
28802;SDS011;15949;55.656;37.422;2023-08-12T10:59:56;16.38;;;12.82;;
28802;SDS011;15949;55.656;37.422;2023-08-12T11:10:14;14.43;;;11.13;;
28802;SDS011;15949;55.656;37.422;2023-08-12T11:20:40;19.80;;;14.67;;
28802;SDS011;15949;55.656;37.422;2023-08-12T11:25:46;23.65;;;16.35;;
28802;SDS011;15949;55.656;37.422;2023-08-12T11:36:00;20.60;;;16.30;;
28802;SDS011;15949;55.656;37.422;2023-08-12T11:41:06;18.92;;;16.02;;
28802;SDS011;15949;55.656;37.422;2023-08-12T11:46:12;24.75;;;17.08;;
28802;SDS011;15949;55.656;37.422;2023-08-12T11:56:26;25.70;;;16.65;;
28802;SDS011;15949;55.656;37.422;2023-08-12T12:01:32;23.25;;;18.00;;
28802;SDS011;15949;55.656;37.422;2023-08-12T12:06:38;21.65;;;15.80;;
28802;SDS011;15949;55.656;37.422;2023-08-12T12:11:44;24.95;;;17.92;;
28802;SDS011;15949;55.656;37.422;2023-08-12T12:16:49;26.55;;;17.63;;
28802;SDS011;15949;55.656;37.422;2023-08-12T12:21:56;21.02;;;17.30;;
28802;SDS011;15949;55.656;37.422;2023-08-12T12:27:01;18.27;;;13.82;;
28802;SDS011;15949;55.656;37.422;2023-08-12T12:32:08;20.00;;;14.80;;
28802;SDS011;15949;55.656;37.422;2023-08-12T12:37:14;23.50;;;15.23;;
28802;SDS011;15949;55.656;37.422;2023-08-12T12:42:19;18.35;;;16.30;;
28802;SDS011;15949;55.656;37.422;2023-08-12T12:47:25;20.00;;;15.77;;
28802;SDS011;15949;55.656;37.422;2023-08-12T12:52:30;20.42;;;15.82;;
28802;SDS011;15949;55.656;37.422;2023-08-12T12:57:36;23.00;;;15.85;;
28802;SDS011;15949;55.656;37.422;2023-08-12T13:02:42;24.70;;;18.10;;
28802;SDS011;15949;55.656;37.422;2023-08-12T13:07:48;21.58;;;15.05;;
28802;SDS011;15949;55.656;37.422;2023-08-12T13:12:53;18.80;;;15.10;;
28802;SDS011;15949;55.656;37.422;2023-08-12T13:17:59;18.45;;;13.93;;
28802;SDS011;15949;55.656;37.422;2023-08-12T13:23:04;20.83;;;15.60;;
28802;SDS011;15949;55.656;37.422;2023-08-12T13:28:10;20.73;;;14.27;;
28802;SDS011;15949;55.656;37.422;2023-08-12T13:33:16;19.10;;;14.40;;
28802;SDS011;15949;55.656;37.422;2023-08-12T13:38:21;18.98;;;14.10;;
28802;SDS011;15949;55.656;37.422;2023-08-12T13:43:27;18.60;;;13.65;;
28802;SDS011;15949;55.656;37.422;2023-08-12T13:48:32;20.52;;;14.05;;
28802;SDS011;15949;55.656;37.422;2023-08-12T13:53:38;16.30;;;14.02;;
28802;SDS011;15949;55.656;37.422;2023-08-12T13:58:44;21.27;;;14.07;;
28802;SDS011;15949;55.656;37.422;2023-08-12T14:03:49;17.98;;;13.57;;
28802;SDS011;15949;55.656;37.422;2023-08-12T14:08:55;18.42;;;15.70;;
28802;SDS011;15949;55.656;37.422;2023-08-12T14:14:00;21.27;;;16.35;;
28802;SDS011;15949;55.656;37.422;2023-08-12T14:19:06;19.95;;;15.15;;
28802;SDS011;15949;55.656;37.422;2023-08-12T14:24:12;21.10;;;16.15;;
28802;SDS011;15949;55.656;37.422;2023-08-12T14:29:18;23.05;;;18.42;;
28802;SDS011;15949;55.656;37.422;2023-08-12T14:34:24;19.73;;;16.52;;
28802;SDS011;15949;55.656;37.422;2023-08-12T14:39:29;18.92;;;13.90;;
28802;SDS011;15949;55.656;37.422;2023-08-12T14:44:35;15.80;;;12.52;;
28802;SDS011;15949;55.656;37.422;2023-08-12T14:49:41;18.63;;;12.00;;
28802;SDS011;15949;55.656;37.422;2023-08-12T14:54:46;16.02;;;11.93;;
28802;SDS011;15949;55.656;37.422;2023-08-12T14:59:52;15.40;;;10.90;;
28802;SDS011;15949;55.656;37.422;2023-08-12T15:04:59;19.27;;;11.82;;
28802;SDS011;15949;55.656;37.422;2023-08-12T15:10:05;15.48;;;11.13;;
28802;SDS011;15949;55.656;37.422;2023-08-12T15:15:11;15.00;;;11.68;;
28802;SDS011;15949;55.656;37.422;2023-08-12T15:20:17;15.18;;;10.60;;
28802;SDS011;15949;55.656;37.422;2023-08-12T15:25:23;14.15;;;9.95;;
28802;SDS011;15949;55.656;37.422;2023-08-12T15:30:28;14.70;;;10.65;;
28802;SDS011;15949;55.656;37.422;2023-08-12T15:35:34;18.75;;;11.52;;
28802;SDS011;15949;55.656;37.422;2023-08-12T15:40:40;15.45;;;10.43;;
28802;SDS011;15949;55.656;37.422;2023-08-12T15:45:45;14.43;;;9.60;;
28802;SDS011;15949;55.656;37.422;2023-08-12T15:50:51;13.93;;;9.50;;
28802;SDS011;15949;55.656;37.422;2023-08-12T15:55:57;9.82;;;8.10;;
28802;SDS011;15949;55.656;37.422;2023-08-12T16:01:02;16.60;;;7.63;;
28802;SDS011;15949;55.656;37.422;2023-08-12T16:06:08;12.63;;;8.40;;
28802;SDS011;15949;55.656;37.422;2023-08-12T16:11:14;13.10;;;8.18;;
28802;SDS011;15949;55.656;37.422;2023-08-12T16:16:20;10.90;;;7.85;;
28802;SDS011;15949;55.656;37.422;2023-08-12T16:21:25;12.80;;;8.35;;
28802;SDS011;15949;55.656;37.422;2023-08-12T16:26:31;10.85;;;8.60;;
28802;SDS011;15949;55.656;37.422;2023-08-12T16:31:36;15.88;;;8.32;;
28802;SDS011;15949;55.656;37.422;2023-08-12T16:36:42;10.80;;;8.45;;
28802;SDS011;15949;55.656;37.422;2023-08-12T16:41:48;13.27;;;8.30;;
28802;SDS011;15949;55.656;37.422;2023-08-12T16:46:53;15.77;;;9.05;;
28802;SDS011;15949;55.656;37.422;2023-08-12T16:51:59;13.32;;;9.20;;
28802;SDS011;15949;55.656;37.422;2023-08-12T16:57:04;11.60;;;9.05;;
28802;SDS011;15949;55.656;37.422;2023-08-12T17:02:10;14.75;;;9.45;;
28802;SDS011;15949;55.656;37.422;2023-08-12T17:07:15;14.25;;;9.27;;
28802;SDS011;15949;55.656;37.422;2023-08-12T17:12:21;16.40;;;9.38;;
28802;SDS011;15949;55.656;37.422;2023-08-12T17:17:26;12.35;;;9.00;;
28802;SDS011;15949;55.656;37.422;2023-08-12T17:22:32;21.95;;;9.90;;
28802;SDS011;15949;55.656;37.422;2023-08-12T17:27:37;15.93;;;9.75;;
28802;SDS011;15949;55.656;37.422;2023-08-12T17:32:43;13.95;;;10.05;;
28802;SDS011;15949;55.656;37.422;2023-08-12T17:37:49;16.45;;;9.98;;
28802;SDS011;15949;55.656;37.422;2023-08-12T17:42:54;15.32;;;9.93;;
28802;SDS011;15949;55.656;37.422;2023-08-12T17:48:00;14.77;;;10.30;;
28802;SDS011;15949;55.656;37.422;2023-08-12T17:53:09;13.88;;;10.52;;
28802;SDS011;15949;55.656;37.422;2023-08-12T17:58:14;16.30;;;11.00;;
28802;SDS011;15949;55.656;37.422;2023-08-12T18:03:20;17.00;;;10.00;;
28802;SDS011;15949;55.656;37.422;2023-08-12T18:08:26;15.73;;;10.40;;
28802;SDS011;15949;55.656;37.422;2023-08-12T18:13:31;15.30;;;11.00;;
28802;SDS011;15949;55.656;37.422;2023-08-12T18:18:37;15.38;;;10.52;;
28802;SDS011;15949;55.656;37.422;2023-08-12T18:23:42;17.15;;;11.02;;
28802;SDS011;15949;55.656;37.422;2023-08-12T18:28:48;14.80;;;11.25;;
28802;SDS011;15949;55.656;37.422;2023-08-12T18:33:54;16.30;;;10.88;;
28802;SDS011;15949;55.656;37.422;2023-08-12T18:38:59;15.68;;;10.98;;
28802;SDS011;15949;55.656;37.422;2023-08-12T18:44:05;15.70;;;11.35;;
28802;SDS011;15949;55.656;37.422;2023-08-12T18:49:12;18.10;;;11.70;;
28802;SDS011;15949;55.656;37.422;2023-08-12T18:54:18;15.73;;;11.05;;
28802;SDS011;15949;55.656;37.422;2023-08-12T18:59:24;15.55;;;11.43;;
28802;SDS011;15949;55.656;37.422;2023-08-12T19:04:30;16.45;;;11.15;;
28802;SDS011;15949;55.656;37.422;2023-08-12T19:09:36;15.20;;;11.23;;
28802;SDS011;15949;55.656;37.422;2023-08-12T19:14:42;18.08;;;11.15;;
28802;SDS011;15949;55.656;37.422;2023-08-12T19:19:47;13.68;;;10.85;;
28802;SDS011;15949;55.656;37.422;2023-08-12T19:24:53;21.52;;;12.43;;
28802;SDS011;15949;55.656;37.422;2023-08-12T19:29:59;17.35;;;11.80;;
28802;SDS011;15949;55.656;37.422;2023-08-12T19:35:04;15.02;;;11.40;;
28802;SDS011;15949;55.656;37.422;2023-08-12T19:40:11;16.08;;;11.48;;
28802;SDS011;15949;55.656;37.422;2023-08-12T19:45:17;15.95;;;12.07;;
28802;SDS011;15949;55.656;37.422;2023-08-12T19:50:22;17.02;;;11.48;;
28802;SDS011;15949;55.656;37.422;2023-08-12T19:55:28;16.05;;;11.73;;
28802;SDS011;15949;55.656;37.422;2023-08-12T20:00:33;19.38;;;11.88;;
28802;SDS011;15949;55.656;37.422;2023-08-12T20:05:39;17.80;;;12.43;;
28802;SDS011;15949;55.656;37.422;2023-08-12T20:10:45;20.00;;;12.23;;
28802;SDS011;15949;55.656;37.422;2023-08-12T20:15:50;16.25;;;12.45;;
28802;SDS011;15949;55.656;37.422;2023-08-12T20:20:59;15.63;;;12.75;;
28802;SDS011;15949;55.656;37.422;2023-08-12T20:26:04;19.70;;;13.25;;
28802;SDS011;15949;55.656;37.422;2023-08-12T20:31:10;20.83;;;12.95;;
28802;SDS011;15949;55.656;37.422;2023-08-12T20:36:16;20.10;;;12.75;;
28802;SDS011;15949;55.656;37.422;2023-08-12T20:41:21;20.02;;;13.95;;
28802;SDS011;15949;55.656;37.422;2023-08-12T20:46:27;19.88;;;13.55;;
28802;SDS011;15949;55.656;37.422;2023-08-12T20:51:33;18.85;;;13.18;;
28802;SDS011;15949;55.656;37.422;2023-08-12T20:56:39;15.65;;;13.15;;
28802;SDS011;15949;55.656;37.422;2023-08-12T21:01:45;16.25;;;12.55;;
28802;SDS011;15949;55.656;37.422;2023-08-12T21:06:50;18.25;;;13.10;;
28802;SDS011;15949;55.656;37.422;2023-08-12T21:12:02;20.92;;;13.35;;
28802;SDS011;15949;55.656;37.422;2023-08-12T21:17:08;19.08;;;13.95;;
28802;SDS011;15949;55.656;37.422;2023-08-12T21:22:14;18.23;;;13.27;;
28802;SDS011;15949;55.656;37.422;2023-08-12T21:27:19;18.38;;;13.52;;
28802;SDS011;15949;55.656;37.422;2023-08-12T21:32:25;20.75;;;14.27;;
28802;SDS011;15949;55.656;37.422;2023-08-12T21:37:31;25.25;;;14.40;;
28802;SDS011;15949;55.656;37.422;2023-08-12T21:42:36;21.52;;;14.07;;
28802;SDS011;15949;55.656;37.422;2023-08-12T21:47:42;20.40;;;13.63;;
28802;SDS011;15949;55.656;37.422;2023-08-12T21:52:47;21.02;;;14.75;;
28802;SDS011;15949;55.656;37.422;2023-08-12T21:57:53;21.80;;;14.65;;
28802;SDS011;15949;55.656;37.422;2023-08-12T22:02:58;24.02;;;15.90;;
28802;SDS011;15949;55.656;37.422;2023-08-12T22:08:05;21.58;;;16.27;;
28802;SDS011;15949;55.656;37.422;2023-08-12T22:13:11;24.08;;;16.98;;
28802;SDS011;15949;55.656;37.422;2023-08-12T22:18:17;21.52;;;17.27;;
28802;SDS011;15949;55.656;37.422;2023-08-12T22:23:23;28.25;;;18.25;;
28802;SDS011;15949;55.656;37.422;2023-08-12T22:28:28;24.05;;;18.05;;
28802;SDS011;15949;55.656;37.422;2023-08-12T22:33:34;26.40;;;19.10;;
28802;SDS011;15949;55.656;37.422;2023-08-12T22:38:39;28.85;;;19.02;;
28802;SDS011;15949;55.656;37.422;2023-08-12T22:43:45;24.35;;;18.52;;
28802;SDS011;15949;55.656;37.422;2023-08-12T22:48:51;25.60;;;19.63;;
28802;SDS011;15949;55.656;37.422;2023-08-12T22:53:56;25.55;;;19.13;;
28802;SDS011;15949;55.656;37.422;2023-08-12T22:59:03;28.00;;;20.67;;
28802;SDS011;15949;55.656;37.422;2023-08-12T23:04:08;26.25;;;17.40;;
28802;SDS011;15949;55.656;37.422;2023-08-12T23:09:14;26.85;;;19.25;;
28802;SDS011;15949;55.656;37.422;2023-08-12T23:14:20;23.25;;;19.83;;
28802;SDS011;15949;55.656;37.422;2023-08-12T23:19:26;23.30;;;19.48;;
28802;SDS011;15949;55.656;37.422;2023-08-12T23:24:31;23.75;;;18.83;;
28802;SDS011;15949;55.656;37.422;2023-08-12T23:29:37;23.83;;;19.88;;
28802;SDS011;15949;55.656;37.422;2023-08-12T23:34:43;23.05;;;19.27;;
28802;SDS011;15949;55.656;37.422;2023-08-12T23:39:49;24.30;;;19.52;;
28802;SDS011;15949;55.656;37.422;2023-08-12T23:44:54;31.02;;;20.00;;
28802;SDS011;15949;55.656;37.422;2023-08-12T23:50:00;28.13;;;19.02;;
28802;SDS011;15949;55.656;37.422;2023-08-12T23:55:06;26.33;;;20.23;;
